Time;durP1;ratioP1;P1;durP2;ratioP2;P2;SDS_P1;SDS_P2;PMS_P1;PMS_P2;Temp;Humidity;BMP_temperature;BMP_pressure;BME280_temperature;BME280_humidity;BME280_pressure;Samples;Min_cycle;Max_cycle;Signal;HPM_P1;HPM_P2
2023/09/30 00:01:53;;;;;;;19.20;5.00;;;;;;;15.01;81.92;101658.94;5035970;28;20570;-74
2023/09/30 00:04:21;;;;;;;15.63;5.37;;;;;;;15.01;82.29;101656.25;5036169;28;20233;-74
2023/09/30 00:06:51;;;;;;;11.63;4.53;;;;;;;14.84;82.25;101668.03;5037027;28;20253;-74
2023/09/30 00:09:20;;;;;;;13.30;4.40;;;;;;;14.93;82.18;101661.66;5036096;28;20285;-74
2023/09/30 00:11:48;;;;;;;12.00;4.63;;;;;;;15.02;81.19;101660.66;5035760;28;20246;-74
2023/09/30 00:14:18;;;;;;;12.90;4.40;;;;;;;15.01;81.18;101669.72;5035946;28;20231;-74
2023/09/30 00:16:46;;;;;;;12.57;5.03;;;;;;;14.98;81.25;101667.38;5035731;28;20765;-74
2023/09/30 00:19:15;;;;;;;18.63;4.90;;;;;;;14.91;82.68;101680.69;5035626;28;20226;-74
2023/09/30 00:21:43;;;;;;;12.77;4.63;;;;;;;15.00;81.78;101668.06;5035926;28;20237;-73
2023/09/30 00:24:13;;;;;;;13.57;4.90;;;;;;;14.77;82.48;101677.78;5035510;28;20271;-74
2023/09/30 00:26:42;;;;;;;10.93;4.50;;;;;;;14.76;82.22;101684.19;5036913;28;20203;-74
2023/09/30 00:29:11;;;;;;;15.47;4.80;;;;;;;14.83;82.55;101687.91;5035821;28;20230;-74
2023/09/30 00:31:40;;;;;;;10.43;4.63;;;;;;;14.83;82.04;101682.53;5035748;28;20203;-74
2023/09/30 00:34:09;;;;;;;12.20;5.23;;;;;;;14.77;82.55;101688.56;5035646;28;20231;-74
2023/09/30 00:36:37;;;;;;;11.73;4.53;;;;;;;14.75;82.79;101695.97;5035494;28;20657;-74
2023/09/30 00:39:07;;;;;;;14.83;4.77;;;;;;;14.84;81.52;101703.91;5035524;28;20230;-74
2023/09/30 00:41:39;;;;;;;15.67;4.93;;;;;;;14.87;81.77;101706.28;5035639;28;20207;-74
2023/09/30 00:44:08;;;;;;;15.27;4.67;;;;;;;14.88;80.99;101701.72;5035167;28;20319;-74
2023/09/30 00:46:39;;;;;;;11.93;5.20;;;;;;;14.80;81.50;101699.00;5036360;28;20289;-73
2023/09/30 00:49:10;;;;;;;12.73;4.30;;;;;;;14.67;82.05;101705.72;5036479;28;20206;-73
2023/09/30 00:51:39;;;;;;;11.47;4.47;;;;;;;14.70;82.35;101702.69;5036519;28;20282;-73
2023/09/30 00:54:08;;;;;;;13.30;5.07;;;;;;;14.76;81.68;101708.47;5036703;28;20238;-73
2023/09/30 00:56:44;;;;;;;14.90;5.10;;;;;;;14.69;81.23;101711.78;5036387;28;20293;-73
2023/09/30 00:59:14;;;;;;;12.00;4.40;;;;;;;14.54;82.85;101709.88;5036521;28;20759;-73
2023/09/30 01:01:43;;;;;;;13.60;5.23;;;;;;;14.56;82.63;101711.41;5035313;28;20560;-73
2023/09/30 01:04:12;;;;;;;17.47;5.40;;;;;;;14.47;82.09;101716.94;5035113;28;20230;-74
2023/09/30 01:06:41;;;;;;;14.87;4.50;;;;;;;14.53;82.35;101698.25;5035151;28;20210;-74
2023/09/30 01:09:10;;;;;;;15.47;5.13;;;;;;;14.55;82.13;101700.81;5035037;28;20199;-74
2023/09/30 01:11:42;;;;;;;10.33;4.37;;;;;;;14.58;81.77;101695.09;5035074;28;20203;-74
2023/09/30 01:14:25;;;;;;;17.80;5.23;;;;;;;14.57;81.64;101694.22;5034905;28;20285;-74
2023/09/30 01:16:54;;;;;;;21.33;5.20;;;;;;;14.49;81.71;101696.88;5034998;28;20222;-74
2023/09/30 01:19:24;;;;;;;13.37;4.97;;;;;;;14.57;81.30;101704.16;5034821;28;20227;-74
2023/09/30 01:21:58;;;;;;;16.40;5.00;;;;;;;14.52;81.70;101701.94;5034789;28;20234;-74
2023/09/30 01:24:27;;;;;;;13.37;5.20;;;;;;;14.58;82.01;101703.16;5034350;28;20241;-74
2023/09/30 01:26:56;;;;;;;17.43;5.00;;;;;;;14.52;81.25;101701.94;5034681;28;20206;-74
2023/09/30 01:29:26;;;;;;;20.23;5.20;;;;;;;14.49;81.47;101704.97;5034675;28;20199;-74
2023/09/30 01:31:54;;;;;;;14.37;4.87;;;;;;;14.53;82.13;101709.03;5033877;28;20301;-74
2023/09/30 01:34:23;;;;;;;18.67;4.93;;;;;;;14.48;82.20;101722.16;5034183;28;20732;-74
2023/09/30 01:36:51;;;;;;;16.23;5.47;;;;;;;14.44;81.44;101731.56;5034503;28;20207;-74
2023/09/30 01:39:21;;;;;;;12.43;4.80;;;;;;;14.27;82.21;101734.31;5034375;28;20237;-74
2023/09/30 01:41:50;;;;;;;14.53;5.10;;;;;;;14.11;82.75;101733.19;5034083;28;20574;-74
2023/09/30 01:44:18;;;;;;;15.83;5.17;;;;;;;14.13;83.02;101731.22;5034273;28;20317;-74
2023/09/30 01:46:47;;;;;;;15.53;5.17;;;;;;;14.10;83.70;101730.69;5034320;28;20289;-74
2023/09/30 01:49:15;;;;;;;14.17;4.83;;;;;;;14.08;82.67;101743.44;5034275;28;20229;-74
2023/09/30 01:51:44;;;;;;;14.23;4.50;;;;;;;14.15;83.09;101741.81;5034183;28;20214;-74
2023/09/30 01:54:12;;;;;;;13.73;4.70;;;;;;;14.00;83.24;101744.25;5034101;28;20223;-74
2023/09/30 01:56:42;;;;;;;14.80;4.73;;;;;;;13.96;84.08;101758.19;5034155;28;20217;-74
2023/09/30 01:59:11;;;;;;;13.50;4.70;;;;;;;14.00;83.07;101759.56;5033732;28;20231;-74
2023/09/30 02:01:39;;;;;;;19.13;4.93;;;;;;;13.98;83.34;101756.16;5034009;28;20213;-74
2023/09/30 02:04:08;;;;;;;16.23;4.53;;;;;;;14.06;83.33;101742.78;5033914;28;20230;-74
2023/09/30 02:06:36;;;;;;;14.60;4.47;;;;;;;14.06;82.98;101737.38;5033963;28;20298;-74
2023/09/30 02:09:08;;;;;;;16.50;4.80;;;;;;;13.97;83.52;101744.53;5033946;28;20207;-74
2023/09/30 02:11:37;;;;;;;16.63;5.00;;;;;;;14.04;83.65;101734.03;5033919;28;20192;-74
2023/09/30 02:14:07;;;;;;;14.37;4.40;;;;;;;13.97;83.46;101743.72;5033670;28;20226;-74
2023/09/30 02:16:35;;;;;;;18.00;5.63;;;;;;;13.82;83.62;101747.97;5033521;28;20700;-74
2023/09/30 02:19:04;;;;;;;17.53;5.20;;;;;;;13.86;84.23;101757.44;5033757;28;20206;-74
2023/09/30 02:21:33;;;;;;;14.23;4.87;;;;;;;13.70;84.19;101748.22;5033740;28;20230;-74
2023/09/30 02:24:02;;;;;;;16.13;5.00;;;;;;;13.77;84.47;101748.44;5033194;28;20616;-74
2023/09/30 02:26:30;;;;;;;18.43;5.20;;;;;;;13.80;83.38;101748.13;5033702;28;20210;-74
2023/09/30 02:28:59;;;;;;;15.13;4.97;;;;;;;13.67;84.08;101751.22;5033695;28;20210;-73
2023/09/30 02:31:29;;;;;;;16.03;4.43;;;;;;;13.64;84.35;101738.09;5033276;28;20211;-74
2023/09/30 02:33:57;;;;;;;19.73;4.80;;;;;;;13.64;84.52;101731.84;5033562;28;20226;-74
2023/09/30 02:36:27;;;;;;;16.73;4.70;;;;;;;13.50;84.59;101738.63;5033298;28;20744;-74
2023/09/30 02:38:55;;;;;;;13.77;4.80;;;;;;;13.55;84.73;101735.50;5033537;28;20237;-73
2023/09/30 02:41:24;;;;;;;16.53;4.90;;;;;;;13.60;84.63;101743.94;5033389;28;20231;-74
2023/09/30 02:43:53;;;;;;;15.33;4.90;;;;;;;13.63;84.77;101749.84;5033429;28;20258;-74
2023/09/30 02:46:21;;;;;;;17.07;5.13;;;;;;;13.64;84.62;101762.31;5033432;28;20314;-74
2023/09/30 02:48:51;;;;;;;15.70;4.60;;;;;;;13.58;84.81;101760.25;5033485;28;20214;-74
2023/09/30 02:51:20;;;;;;;11.73;3.97;;;;;;;13.66;84.39;101768.38;5033444;28;20202;-73
2023/09/30 02:53:49;;;;;;;13.83;4.40;;;;;;;13.67;84.41;101761.16;5033324;28;20231;-74
2023/09/30 02:56:19;;;;;;;14.63;4.33;;;;;;;13.61;84.56;101764.47;5033023;28;20735;-74
2023/09/30 02:58:47;;;;;;;17.67;4.77;;;;;;;13.49;85.31;101761.16;5033023;28;20743;-74
2023/09/30 03:01:17;;;;;;;17.53;4.70;;;;;;;13.46;85.38;101761.47;5033218;28;20230;-74
2023/09/30 03:03:46;;;;;;;14.77;4.70;;;;;;;13.44;85.09;101750.03;5033212;28;20317;-74
2023/09/30 03:06:18;;;;;;;15.00;5.03;;;;;;;13.47;85.31;101768.53;5033241;28;20238;-74
2023/09/30 03:08:48;;;;;;;14.13;4.60;;;;;;;13.51;85.23;101764.56;5033271;28;20241;-74
2023/09/30 03:11:16;;;;;;;15.47;4.77;;;;;;;13.36;85.18;101766.06;5032904;28;20664;-74
2023/09/30 03:13:45;;;;;;;15.03;4.60;;;;;;;13.32;85.49;101770.06;5033115;28;20277;-74
2023/09/30 03:16:13;;;;;;;15.30;5.00;;;;;;;13.43;85.53;101771.69;5032861;28;20217;-74
2023/09/30 03:18:44;;;;;;;16.37;4.50;;;;;;;13.46;84.94;101766.84;5032833;28;20297;-74
2023/09/30 03:21:16;;;;;;;18.63;4.47;;;;;;;13.44;85.59;101763.47;5033124;28;20211;-73
2023/09/30 03:23:45;;;;;;;16.37;4.87;;;;;;;13.40;84.72;101758.53;5032811;28;20241;-73
2023/09/30 03:26:13;;;;;;;12.53;4.00;;;;;;;13.41;85.25;101768.31;5032783;28;20302;-74
2023/09/30 03:28:42;;;;;;;13.93;4.13;;;;;;;13.38;85.77;101774.84;5033107;28;20207;-74
2023/09/30 03:31:11;;;;;;;15.10;4.70;;;;;;;13.48;84.85;101770.25;5033012;28;20203;-74
2023/09/30 03:33:40;;;;;;;13.60;4.63;;;;;;;13.34;85.66;101765.41;5032920;28;20222;-74
2023/09/30 03:36:11;;;;;;;13.07;4.40;;;;;;;13.30;85.07;101766.69;5032831;28;20759;-74
2023/09/30 03:38:41;;;;;;;15.97;4.43;;;;;;;13.23;85.36;101765.63;5033994;28;20253;-73
2023/09/30 03:41:12;;;;;;;15.07;4.07;;;;;;;13.28;85.78;101766.03;5032686;28;20242;-73
2023/09/30 03:43:41;;;;;;;14.97;4.13;;;;;;;13.16;86.02;101761.84;5032891;28;20234;-74
2023/09/30 03:46:11;;;;;;;17.60;4.67;;;;;;;13.15;85.88;101766.38;5033025;28;20294;-74
2023/09/30 03:48:40;;;;;;;11.27;3.80;;;;;;;13.09;86.50;101758.06;5034521;28;20207;-74
2023/09/30 03:51:13;;;;;;;14.80;4.50;;;;;;;13.04;85.94;101761.19;5033106;28;20210;-74
2023/09/30 03:53:44;;;;;;;14.80;4.53;;;;;;;13.11;85.89;101758.78;5033300;28;20230;-75
2023/09/30 03:56:13;;;;;;;15.47;4.23;;;;;;;13.13;85.78;101754.09;5036446;28;20234;-74
2023/09/30 03:58:42;;;;;;;12.57;4.30;;;;;;;13.02;86.90;101755.13;5036365;28;20211;-74
2023/09/30 04:01:13;;;;;;;12.23;4.80;;;;;;;12.88;87.89;101750.25;5035919;28;20727;-74
2023/09/30 04:03:43;;;;;;;14.63;5.27;;;;;;;12.90;87.95;101748.28;5035930;28;20230;-74
2023/09/30 04:06:12;;;;;;;15.17;4.70;;;;;;;12.96;86.85;101757.56;5036256;28;20599;-74
2023/09/30 04:08:43;;;;;;;13.70;4.73;;;;;;;12.95;87.17;101755.88;5036148;28;20217;-74
2023/09/30 04:11:17;;;;;;;15.13;4.73;;;;;;;13.02;86.50;101752.41;5036165;28;20270;-74
2023/09/30 04:13:46;;;;;;;15.03;4.23;;;;;;;12.95;86.71;101754.03;5035738;28;20712;-74
2023/09/30 04:16:15;;;;;;;11.53;4.20;;;;;;;12.95;87.08;101756.72;5036037;28;20203;-74
2023/09/30 04:18:44;;;;;;;17.63;5.80;;;;;;;12.89;87.38;101753.78;5035995;28;20225;-74
2023/09/30 04:21:12;;;;;;;15.53;5.30;;;;;;;12.91;86.86;101760.69;5035869;28;20226;-75
2023/09/30 04:23:41;;;;;;;13.90;4.70;;;;;;;12.86;88.32;101754.09;5035455;28;20238;-75
2023/09/30 04:26:10;;;;;;;9.73;4.30;;;;;;;12.86;87.21;101757.63;5035583;28;20739;-75
2023/09/30 04:28:40;;;;;;;17.73;5.37;;;;;;;12.87;87.27;101758.47;5035808;28;20386;-74
2023/09/30 04:31:11;;;;;;;17.13;5.40;;;;;;;12.90;87.84;101753.66;5035488;28;20227;-74
2023/09/30 04:33:40;;;;;;;12.33;4.80;;;;;;;12.93;87.93;101758.72;5035671;28;20257;-74
2023/09/30 04:36:10;;;;;;;13.93;5.03;;;;;;;12.92;88.19;101762.41;5035694;28;20348;-74
2023/09/30 04:38:39;;;;;;;12.20;4.97;;;;;;;12.91;87.70;101765.25;5035350;28;20195;-74
2023/09/30 04:41:08;;;;;;;12.97;4.90;;;;;;;12.83;88.05;101757.94;5035526;28;20226;-74
2023/09/30 04:43:38;;;;;;;12.93;5.30;;;;;;;12.84;88.88;101767.69;5035487;28;20281;-74
2023/09/30 04:46:08;;;;;;;16.73;5.50;;;;;;;12.77;88.02;101776.50;5035489;28;20228;-74
2023/09/30 04:48:37;;;;;;;17.93;5.90;;;;;;;12.75;88.14;101775.78;5035502;28;20217;-74
2023/09/30 04:51:08;;;;;;;11.93;5.27;;;;;;;12.73;89.20;101772.41;5035403;28;20198;-74
2023/09/30 04:53:38;;;;;;;15.67;5.67;;;;;;;12.75;88.84;101783.84;5035356;28;20227;-74
2023/09/30 04:56:06;;;;;;;13.50;6.03;;;;;;;12.66;88.83;101783.75;5035328;28;20256;-74
2023/09/30 04:58:35;;;;;;;10.43;5.30;;;;;;;12.58;89.73;101782.78;5035248;28;20286;-74
2023/09/30 05:01:03;;;;;;;14.20;5.77;;;;;;;12.54;89.57;101784.94;5035156;28;20234;-74
2023/09/30 05:03:34;;;;;;;16.13;5.47;;;;;;;12.56;89.42;101777.59;5035066;28;20252;-74
2023/09/30 05:06:03;;;;;;;18.63;5.80;;;;;;;12.53;90.61;101761.78;5034891;28;20191;-74
2023/09/30 05:08:31;;;;;;;21.80;5.93;;;;;;;12.50;90.33;101770.09;5035042;28;20242;-74
2023/09/30 05:11:00;;;;;;;16.90;5.50;;;;;;;12.52;90.10;101765.44;5034709;28;20207;-74
2023/09/30 05:13:29;;;;;;;14.37;5.43;;;;;;;12.60;89.95;101768.22;5034905;28;20234;-74
2023/09/30 05:15:57;;;;;;;13.17;5.70;;;;;;;12.51;90.45;101769.09;5034900;28;20306;-74
2023/09/30 05:18:28;;;;;;;17.47;6.17;;;;;;;12.58;90.09;101764.00;5034574;28;20213;-74
2023/09/30 05:20:58;;;;;;;17.33;5.73;;;;;;;12.47;91.30;101777.59;5034767;28;20226;-74
2023/09/30 05:23:26;;;;;;;18.73;5.97;;;;;;;12.49;90.48;101773.78;5034504;28;20270;-74
2023/09/30 05:25:55;;;;;;;14.87;5.47;;;;;;;12.52;90.48;101780.69;5034724;28;20206;-74
2023/09/30 05:28:23;;;;;;;15.13;5.57;;;;;;;12.51;90.26;101789.75;5034659;28;20229;-74
2023/09/30 05:30:53;;;;;;;15.97;5.80;;;;;;;12.55;90.60;101783.09;5034348;28;20669;-74
2023/09/30 05:33:22;;;;;;;11.07;5.27;;;;;;;12.53;90.92;101785.09;5034481;28;20254;-74
2023/09/30 05:35:51;;;;;;;14.57;5.40;;;;;;;12.49;90.73;101787.22;5034581;28;20210;-74
2023/09/30 05:38:23;;;;;;;14.77;5.97;;;;;;;12.52;90.42;101792.31;5034199;28;20211;-74
2023/09/30 05:40:51;;;;;;;14.73;5.47;;;;;;;12.54;90.54;101784.94;5034367;28;20279;-74
2023/09/30 05:43:19;;;;;;;16.90;5.33;;;;;;;12.46;90.47;101782.16;5034004;28;20701;-74
2023/09/30 05:45:54;;;;;;;12.77;5.40;;;;;;;12.59;90.73;101806.84;5034385;28;20341;-74
2023/09/30 05:48:23;;;;;;;15.07;5.83;;;;;;;12.60;90.80;101792.38;5034006;28;20190;-74
2023/09/30 05:50:52;;;;;;;13.90;5.50;;;;;;;12.61;90.29;101796.78;5034228;28;20217;-74
2023/09/30 05:53:22;;;;;;;17.30;6.23;;;;;;;12.57;90.03;101799.91;5034112;28;20237;-75
2023/09/30 05:55:51;;;;;;;13.20;4.90;;;;;;;12.62;89.91;101797.63;5033870;28;20677;-75
2023/09/30 05:58:19;;;;;;;18.13;5.43;;;;;;;12.59;90.33;101795.25;5034113;28;20305;-74
2023/09/30 06:00:48;;;;;;;13.83;5.07;;;;;;;12.56;90.47;101791.03;5033838;28;20680;-73
2023/09/30 06:03:17;;;;;;;15.10;5.63;;;;;;;12.61;89.53;101796.78;5033975;28;20245;-74
2023/09/30 06:05:46;;;;;;;15.83;5.20;;;;;;;12.60;90.26;101803.13;5034244;28;20217;-75
2023/09/30 06:08:15;;;;;;;16.07;5.90;;;;;;;12.57;91.18;101816.88;5034196;28;20206;-74
2023/09/30 06:10:45;;;;;;;18.87;6.10;;;;;;;12.54;90.92;101811.78;5034098;28;20207;-74
2023/09/30 06:13:15;;;;;;;14.47;5.10;;;;;;;12.58;90.52;101812.34;5034198;28;20265;-74
2023/09/30 06:15:46;;;;;;;17.03;6.27;;;;;;;12.52;90.69;101819.16;5033676;28;20624;-74
2023/09/30 06:18:15;;;;;;;16.57;5.53;;;;;;;12.56;90.57;101820.56;5034299;28;20238;-74
2023/09/30 06:20:44;;;;;;;20.77;5.43;;;;;;;12.56;90.50;101828.63;5033755;28;20234;-74
2023/09/30 06:23:12;;;;;;;14.20;5.90;;;;;;;12.56;90.72;101833.16;5033393;28;20258;-74
2023/09/30 06:25:41;;;;;;;15.13;4.80;;;;;;;12.43;91.58;101844.19;5033715;28;20206;-74
2023/09/30 06:28:11;;;;;;;15.87;5.83;;;;;;;12.45;91.77;101844.91;5033675;28;20210;-74
2023/09/30 06:30:42;;;;;;;16.80;5.07;;;;;;;12.46;91.30;101846.63;5033647;28;20312;-74
2023/09/30 06:33:14;;;;;;;19.63;5.70;;;;;;;12.48;91.87;101851.81;5033554;28;20278;-73
2023/09/30 06:35:50;;;;;;;11.27;4.87;;;;;;;12.48;92.03;101850.00;5033594;28;20198;-70
2023/09/30 06:38:19;;;;;;;19.40;5.70;;;;;;;12.43;91.65;101848.75;5033316;28;20667;-74
2023/09/30 06:40:48;;;;;;;14.63;5.17;;;;;;;12.46;92.12;101845.75;5033533;28;20257;-74
2023/09/30 06:43:18;;;;;;;16.70;6.03;;;;;;;12.46;91.93;101841.25;5033032;28;20761;-75
2023/09/30 06:45:47;;;;;;;18.43;5.70;;;;;;;12.55;91.74;101859.16;5033156;28;20730;-75
2023/09/30 06:48:16;;;;;;;15.70;5.63;;;;;;;12.59;92.22;101863.25;5033445;28;20207;-75
2023/09/30 06:50:48;;;;;;;17.47;4.73;;;;;;;12.67;92.19;101859.84;5033138;28;20667;-75
2023/09/30 06:53:16;;;;;;;13.43;5.77;;;;;;;12.68;91.45;101862.38;5033012;28;20226;-74
2023/09/30 06:55:45;;;;;;;14.67;5.60;;;;;;;12.67;92.02;101857.97;5033340;28;20217;-74
2023/09/30 06:58:18;;;;;;;16.67;5.17;;;;;;;12.66;92.56;101859.00;5033309;28;20405;-75
2023/09/30 07:00:50;;;;;;;16.13;5.23;;;;;;;12.66;92.14;101864.38;5033365;28;20191;-75
2023/09/30 07:03:19;;;;;;;14.57;5.17;;;;;;;12.70;91.87;101860.38;5032894;28;20235;-74
2023/09/30 07:05:52;;;;;;;15.33;5.50;;;;;;;12.76;91.83;101863.47;5033352;28;20195;-75
2023/09/30 07:08:21;;;;;;;13.50;5.60;;;;;;;12.79;92.06;101869.41;5032976;28;20214;-75
2023/09/30 07:10:52;;;;;;;14.33;5.57;;;;;;;12.81;91.96;101880.03;5033226;28;20565;-75
2023/09/30 07:13:21;;;;;;;14.03;5.47;;;;;;;12.82;92.07;101877.16;5033199;28;20257;-75
2023/09/30 07:15:51;;;;;;;15.17;5.30;;;;;;;12.85;91.97;101879.56;5033270;28;20600;-75
2023/09/30 07:18:20;;;;;;;13.23;5.17;;;;;;;12.92;92.20;101879.81;5033253;28;20221;-74
2023/09/30 07:20:48;;;;;;;13.87;5.30;;;;;;;12.96;92.35;101884.75;5032887;28;20206;-74
2023/09/30 07:23:17;;;;;;;17.03;5.23;;;;;;;13.01;91.70;101889.69;5032784;28;20235;-74
2023/09/30 07:25:48;;;;;;;15.77;5.50;;;;;;;13.05;91.38;101896.44;5033168;28;20286;-75
2023/09/30 07:28:17;;;;;;;14.00;4.83;;;;;;;13.09;91.54;101896.03;5033132;28;20207;-75
2023/09/30 07:30:45;;;;;;;16.30;5.13;;;;;;;13.15;91.04;101897.31;5036912;28;20209;-75
2023/09/30 07:33:15;;;;;;;15.57;5.33;;;;;;;13.19;91.29;101896.00;5036502;28;20337;-75
2023/09/30 07:35:44;;;;;;;11.27;4.47;;;;;;;13.26;90.45;101894.41;5036824;28;20202;-75
2023/09/30 07:38:13;;;;;;;12.77;5.13;;;;;;;13.31;90.20;101897.50;5036756;28;20203;-75
2023/09/30 07:40:41;;;;;;;13.83;5.03;;;;;;;13.37;89.81;101906.78;5036719;28;20266;-75
2023/09/30 07:43:12;;;;;;;14.23;5.33;;;;;;;13.44;90.22;101908.75;5036534;28;20265;-75
2023/09/30 07:45:43;;;;;;;14.57;4.93;;;;;;;13.49;90.42;101900.22;5036678;28;20222;-75
2023/09/30 07:48:12;;;;;;;18.57;4.50;;;;;;;13.57;90.15;101911.06;5036320;28;20195;-75
2023/09/30 07:50:43;;;;;;;12.93;5.33;;;;;;;13.62;90.80;101915.00;5036568;28;20252;-75
2023/09/30 07:53:12;;;;;;;11.37;5.20;;;;;;;13.70;89.73;101914.22;5036151;28;20207;-75
2023/09/30 07:55:41;;;;;;;16.53;5.47;;;;;;;13.81;89.07;101915.84;5036428;28;20211;-75
2023/09/30 07:58:09;;;;;;;13.27;4.40;;;;;;;13.90;87.96;101920.34;5036425;28;20234;-75
2023/09/30 08:00:38;;;;;;;14.47;4.73;;;;;;;13.99;87.71;101930.19;5036373;28;20211;-75
2023/09/30 08:03:07;;;;;;;13.10;4.40;;;;;;;14.04;87.60;101927.91;5036204;28;20230;-75
2023/09/30 08:05:35;;;;;;;16.53;4.43;;;;;;;14.12;86.85;101925.25;5035963;28;20744;-75
2023/09/30 08:08:06;;;;;;;15.10;4.70;;;;;;;14.20;87.33;101928.03;5036124;28;20253;-75
2023/09/30 08:10:36;;;;;;;13.50;4.27;;;;;;;14.30;86.83;101936.88;5036234;28;20191;-76
2023/09/30 08:13:05;;;;;;;13.50;3.80;;;;;;;14.37;85.88;101934.44;5036075;28;20260;-76
2023/09/30 08:15:35;;;;;;;17.93;4.73;;;;;;;14.46;86.58;101945.13;5036073;28;20246;-75
2023/09/30 08:18:05;;;;;;;23.93;18.00;;;;;;;14.56;86.18;101935.09;5035931;28;20286;-75
2023/09/30 08:20:34;;;;;;;13.00;4.90;;;;;;;14.64;85.70;101929.75;5036055;28;20219;-75
2023/09/30 08:23:04;;;;;;;14.47;4.30;;;;;;;14.75;84.47;101950.22;5035673;28;20222;-75
2023/09/30 08:25:33;;;;;;;10.07;4.27;;;;;;;14.88;84.68;101941.72;5035931;28;20226;-76
2023/09/30 08:28:01;;;;;;;13.30;5.83;;;;;;;14.95;84.11;101940.06;5035564;28;20214;-76
2023/09/30 08:30:30;;;;;;;14.03;5.50;;;;;;;15.04;82.98;101931.00;5035851;28;20656;-76
2023/09/30 08:32:59;;;;;;;110.03;98.83;;;;;;;15.12;82.78;101941.84;5035384;28;20744;-75
2023/09/30 08:35:27;;;;;;;11.53;4.93;;;;;;;15.24;82.96;101940.53;5035768;28;20236;-75
2023/09/30 08:37:58;;;;;;;49.43;44.47;;;;;;;15.27;83.48;101940.25;5035685;28;20214;-75
2023/09/30 08:40:28;;;;;;;12.57;4.30;;;;;;;15.37;81.08;101940.13;5035504;28;20199;-76
2023/09/30 08:42:56;;;;;;;16.70;14.90;;;;;;;15.42;81.73;101932.34;5035163;28;20328;-75
2023/09/30 08:45:25;;;;;;;49.10;44.80;;;;;;;15.49;83.94;101936.97;5035544;28;20242;-75
2023/09/30 08:47:54;;;;;;;9.80;4.47;;;;;;;15.57;81.21;101928.94;5035464;28;20209;-75
2023/09/30 08:50:23;;;;;;;15.33;7.67;;;;;;;15.65;81.49;101934.31;5035453;28;20207;-75
2023/09/30 08:52:53;;;;;;;63.17;58.30;;;;;;;15.68;81.79;101931.28;5035439;28;20199;-76
2023/09/30 08:55:21;;;;;;;13.70;4.70;;;;;;;15.66;81.87;101929.78;5035164;28;20641;-75
2023/09/30 08:57:52;;;;;;;34.10;30.57;;;;;;;15.78;80.44;101939.28;5035891;28;20213;-74
2023/09/30 09:00:22;;;;;;;37.47;30.27;;;;;;;15.83;79.25;101936.06;5035646;28;20270;-76
2023/09/30 09:02:51;;;;;;;11.33;3.83;;;;;;;15.86;75.99;101941.97;5035664;28;20269;-75
2023/09/30 09:05:20;;;;;;;10.97;5.03;;;;;;;15.83;76.01;101950.41;5035235;28;20572;-75
2023/09/30 09:07:50;;;;;;;14.93;6.87;;;;;;;15.84;76.50;101953.97;5035285;28;20202;-74
2023/09/30 09:10:19;;;;;;;176.03;158.37;;;;;;;15.85;77.38;101955.66;5035187;28;20205;-75
2023/09/30 09:12:58;;;;;;;32.73;29.23;;;;;;;15.90;76.62;101954.16;5035073;28;20211;-76
2023/09/30 09:15:28;;;;;;;52.63;47.50;;;;;;;15.86;76.26;101957.34;5034958;28;20191;-76
2023/09/30 09:17:57;;;;;;;12.53;8.20;;;;;;;15.81;76.66;101952.44;5034675;28;20206;-75
2023/09/30 09:20:26;;;;;;;13.30;8.07;;;;;;;15.84;76.17;101959.38;5034946;28;20207;-75
2023/09/30 09:23:00;;;;;;;8.10;3.63;;;;;;;15.84;75.30;101957.50;5034497;28;20202;-75
2023/09/30 09:25:28;;;;;;;8.53;3.43;;;;;;;15.88;74.84;101963.44;5034781;28;20191;-75
2023/09/30 09:27:58;;;;;;;32.67;24.53;;;;;;;15.86;75.11;101963.59;5034711;28;20211;-74
2023/09/30 09:30:28;;;;;;;34.47;27.07;;;;;;;15.96;74.61;101963.47;5034422;28;20222;-75
2023/09/30 09:33:01;;;;;;;10.27;3.33;;;;;;;16.13;73.44;101960.59;5034512;28;20213;-74
2023/09/30 09:35:32;;;;;;;46.93;42.13;;;;;;;16.14;74.57;101956.03;5034664;28;20214;-75
2023/09/30 09:38:02;;;;;;;13.20;4.67;;;;;;;16.22;72.64;101954.22;5034642;28;20198;-75
2023/09/30 09:40:33;;;;;;;32.87;29.30;;;;;;;16.24;73.48;101948.63;5034733;28;20195;-75
2023/09/30 09:43:05;;;;;;;84.27;76.73;;;;;;;16.19;73.23;101943.75;5034283;28;20210;-75
2023/09/30 09:45:35;;;;;;;14.27;9.27;;;;;;;16.17;73.94;101942.19;5034400;28;20187;-75
2023/09/30 09:48:06;;;;;;;7.70;3.27;;;;;;;16.19;71.80;101948.28;5034829;28;20207;-75
2023/09/30 09:50:38;;;;;;;8.77;3.37;;;;;;;16.21;72.94;101946.25;5034023;28;20545;-75
2023/09/30 09:53:08;;;;;;;206.90;189.50;;;;;;;16.16;72.97;101949.44;5033655;28;20282;-75
2023/09/30 09:55:39;;;;;;;14.67;11.10;;;;;;;16.14;72.65;101950.63;5034225;28;20242;-75
2023/09/30 09:58:11;;;;;;;16.27;11.03;;;;;;;16.15;72.61;101952.34;5034227;28;20195;-75
2023/09/30 10:00:41;;;;;;;8.90;4.00;;;;;;;16.40;71.60;101948.66;5034158;28;20274;-75
2023/09/30 10:03:10;;;;;;;43.53;38.73;;;;;;;16.59;71.97;101944.78;5033695;28;20198;-75
2023/09/30 10:05:41;;;;;;;7.73;3.10;;;;;;;16.70;69.10;101942.56;5034014;28;20207;-75
2023/09/30 10:08:17;;;;;;;9.07;3.60;;;;;;;16.67;69.46;101953.72;5033766;28;20191;-74
2023/09/30 10:10:46;;;;;;;18.50;16.53;;;;;;;16.78;69.91;101949.81;5034005;28;20197;-75
2023/09/30 10:13:48;;;;;;;7.33;2.93;;;;;;;17.01;67.89;101950.78;5033901;28;20241;-76
2023/09/30 10:16:46;;;;;;;8.47;3.13;;;;;;;17.22;67.83;101961.06;5033387;28;20217;-75
2023/09/30 10:19:18;;;;;;;9.67;3.00;;;;;;;17.35;66.01;101952.38;5032485;28;20257;-75
2023/09/30 10:22:21;;;;;;;10.03;3.33;;;;;;;17.51;66.97;101961.28;5033867;28;20202;-76
2023/09/30 10:24:52;;;;;;;8.57;3.20;;;;;;;17.60;65.34;101952.09;5033250;28;20230;-76
2023/09/30 10:27:37;;;;;;;9.97;3.43;;;;;;;17.76;65.08;101953.06;5033818;28;20187;-76
2023/09/30 10:30:16;;;;;;;213.73;175.00;;;;;;;17.75;64.53;101952.22;5033714;28;20194;-75
2023/09/30 10:33:14;;;;;;;20.13;13.07;;;;;;;17.72;64.98;101953.41;5033371;28;20241;-76
2023/09/30 10:35:48;;;;;;;182.70;136.37;;;;;;;17.82;64.61;101971.31;5033322;28;20241;-75
2023/09/30 10:38:46;;;;;;;9.00;3.40;;;;;;;17.87;62.83;101958.94;5033672;28;20273;-77
2023/09/30 10:41:51;;;;;;;292.73;233.00;;;;;;;17.87;64.46;101958.09;4991933;28;20203;-75
2023/09/30 10:44:36;;;;;;;8.10;4.20;;;;;;;17.99;64.01;101952.06;5033438;28;20242;-76
2023/09/30 10:47:35;;;;;;;31.27;17.40;;;;;;;18.14;64.32;101963.00;5033201;28;20242;-76
2023/09/30 10:50:25;;;;;;;163.57;114.93;;;;;;;18.28;63.25;101966.78;5033426;28;20238;-75
2023/09/30 10:52:55;;;;;;;61.37;37.87;;;;;;;18.32;62.27;101984.38;5033025;28;20234;-75
2023/09/30 10:55:24;;;;;;;91.93;74.27;;;;;;;18.38;62.56;101983.66;5034423;28;20203;-76
2023/09/30 10:57:53;;;;;;;22.30;14.33;;;;;;;18.47;59.49;101977.13;5033405;28;20234;-76
2023/09/30 11:00:22;;;;;;;20.33;15.33;;;;;;;18.35;60.51;101957.75;5033328;28;20238;-75
2023/09/30 11:02:53;;;;;;;11.20;4.10;;;;;;;18.16;59.34;101963.63;5033030;28;20207;-76
2023/09/30 11:05:23;;;;;;;9.33;4.60;;;;;;;18.08;59.57;101956.41;5036734;28;20218;-76
2023/09/30 11:08:16;;;;;;;8.07;2.67;;;;;;;18.20;59.80;101964.97;5037386;28;20202;-76
2023/09/30 11:10:50;;;;;;;9.43;5.17;;;;;;;18.31;60.89;101961.84;5037380;28;20226;-77
2023/09/30 11:13:19;;;;;;;8.90;2.73;;;;;;;18.35;59.87;101952.31;5037268;28;20235;-77
2023/09/30 11:15:48;;;;;;;7.23;2.93;;;;;;;18.46;59.35;101959.19;5036932;28;20740;-76
2023/09/30 11:18:18;;;;;;;9.93;4.53;;;;;;;18.58;61.13;101963.16;5037164;28;20203;-77
2023/09/30 11:20:47;;;;;;;8.23;3.77;;;;;;;18.68;59.48;101967.31;5037036;28;20202;-77
2023/09/30 11:23:17;;;;;;;8.33;2.70;;;;;;;18.74;58.93;101963.88;5036801;28;20245;-77
2023/09/30 11:25:46;;;;;;;7.70;3.10;;;;;;;18.78;56.75;101963.50;5036914;28;20222;-77
2023/09/30 11:28:15;;;;;;;5.90;2.40;;;;;;;18.91;54.75;101961.84;5036677;28;20269;-77
2023/09/30 11:30:57;;;;;;;7.33;2.73;;;;;;;19.03;55.41;101956.81;5036974;28;20272;-77
2023/09/30 11:33:26;;;;;;;7.67;2.70;;;;;;;19.14;54.60;101948.19;5036814;28;20223;-77